メインページ
METAR-TAF:

METAR-TAF

空港 :

北京, 中華人民共和国

北京首都国際空港

緯度: 39-56N, 経度: 116-17E, 海抜: 55m

現時点の気象観測

当レポートは17分前の12:00(UTC)に作成
南/南東の風 8kt
気温 0°C
湿度 31%
気圧 1031 hPa
視程10km以上
1,500メートル以下は雲なし、積乱雲なし

METAR: ZBAA 241200Z 15004MPS CAVOK M00/M15 Q1031 NOSIG

時間: 20:17 (12:17 UTC)

予報

当レポートは2時間57分前の09:20(UTC)に作成
予報は24日の 12時(UTC)から 25日の 12時(UTC)まで有効
の風 8kt
視程10km以上
1,500メートル以下は雲なし、積乱雲なし

TAF: ZBAA 240920Z 2412/2512 18004MPS CAVOK TX06/2507Z TNM05/21Z

4,000以上の空港の気象観測と天気予報(METAR報とTAF報)

利用可能な観測所は地図上に黄色い丸と赤い丸で示す。

丸の上にカーソルを重ねると観測所名を参照できる。

次にクリックすると気象観測と天気予報を参照できる。

マップの切り替え:黒色「×」印の緑ボタンをクリックして拡大、「-」印の緑ボタンをクリックして縮小、緑色の三角印をクリックして隣りの地図に切り替え


METAR-TAF: